Time,TemperatureF,DewpointF,PressureIn,WindDirection,WindDirectionDegrees,WindSpeedMPH,WindSpeedGustMPH,Humidity,HourlyPrecipIn,Conditions,Clouds,dailyrainin,SoftwareType,DateUTC
2013-04-27 00:13:00,47.8,30.0,30.44,NNW,340,3.0,4.0,50,0.00,,,0.00,weatherlink.com 1.10,2013-04-27 04:13:00,
2013-04-27 00:28:00,47.7,30.0,30.44,North,355,2.0,4.0,51,0.00,,,0.00,weatherlink.com 1.10,2013-04-27 04:28:00,
2013-04-27 00:43:00,47.3,30.0,30.44,North,355,0.0,3.0,51,0.00,,,0.00,weatherlink.com 1.10,2013-04-27 04:43:00,
2013-04-27 00:58:00,46.6,30.0,30.44,North,355,1.0,2.0,53,0.00,,,0.00,weatherlink.com 1.10,2013-04-27 04:58:00,
2013-04-27 01:13:00,45.9,31.0,30.44,North,355,0.0,2.0,56,0.00,,,0.00,weatherlink.com 1.10,2013-04-27 05:13:00,
2013-04-27 01:28:00,45.2,30.0,30.44,North,355,1.0,1.0,56,0.00,,,0.00,weatherlink.com 1.10,2013-04-27 05:28:00,
2013-04-27 01:43:00,44.6,30.0,30.44,North,355,0.0,1.0,58,0.00,,,0.00,weatherlink.com 1.10,2013-04-27 05:43:00,
2013-04-27 01:58:00,44.2,31.0,30.44,North,355,0.0,1.0,61,0.00,,,0.00,weatherlink.com 1.10,2013-04-27 05:58:00,
2013-04-27 02:13:00,43.6,31.0,30.44,North,355,0.0,0.0,62,0.00,,,0.00,weatherlink.com 1.10,2013-04-27 06:13:00,
2013-04-27 02:28:00,43.0,32.0,30.43,North,355,0.0,0.0,65,0.00,,,0.00,weatherlink.com 1.10,2013-04-27 06:28:00,
2013-04-27 02:43:00,42.4,32.0,30.43,North,355,0.0,1.0,67,0.00,,,0.00,weatherlink.com 1.10,2013-04-27 06:43:00,
2013-04-27 02:58:00,41.8,32.0,30.42,North,355,0.0,0.0,67,0.00,,,0.00,weatherlink.com 1.10,2013-04-27 06:58:00,
2013-04-27 03:13:00,41.4,32.0,30.42,North,355,0.0,0.0,68,0.00,,,0.00,weatherlink.com 1.10,2013-04-27 07:13:00,
2013-04-27 03:28:00,41.0,32.0,30.42,North,355,0.0,1.0,69,0.00,,,0.00,weatherlink.com 1.10,2013-04-27 07:28:00,
2013-04-27 03:43:00,40.6,32.0,30.42,North,355,0.0,1.0,71,0.00,,,0.00,weatherlink.com 1.10,2013-04-27 07:43:00,
2013-04-27 03:58:00,40.4,31.0,30.42,North,355,1.0,1.0,70,0.00,,,0.00,weatherlink.com 1.10,2013-04-27 07:58:00,
2013-04-27 04:13:00,40.0,31.0,30.42,North,355,0.0,2.0,71,0.00,,,0.00,weatherlink.com 1.10,2013-04-27 08:13:00,
2013-04-27 04:28:00,39.7,32.0,30.42,North,355,0.0,2.0,73,0.00,,,0.00,weatherlink.com 1.10,2013-04-27 08:28:00,
2013-04-27 04:44:00,39.7,32.0,30.43,North,355,0.0,1.0,73,0.00,,,0.00,weatherlink.com 1.10,2013-04-27 08:44:00,
2013-04-27 04:59:00,40.9,31.0,30.42,North,355,1.0,2.0,67,0.00,,,0.00,weatherlink.com 1.10,2013-04-27 08:59:00,
2013-04-27 05:14:00,41.3,31.0,30.42,North,355,0.0,2.0,67,0.00,,,0.00,weatherlink.com 1.10,2013-04-27 09:14:00,
2013-04-27 05:29:00,40.6,31.0,30.42,North,355,0.0,0.0,69,0.00,,,0.00,weatherlink.com 1.10,2013-04-27 09:29:00,
2013-04-27 05:44:00,40.2,31.0,30.42,North,355,1.0,2.0,70,0.00,,,0.00,weatherlink.com 1.10,2013-04-27 09:44:00,
2013-04-27 05:59:00,39.9,32.0,30.42,North,355,0.0,0.0,72,0.00,,,0.00,weatherlink.com 1.10,2013-04-27 09:59:00,
2013-04-27 06:14:00,39.7,31.0,30.43,North,355,0.0,0.0,72,0.00,,,0.00,weatherlink.com 1.10,2013-04-27 10:14:00,
2013-04-27 06:29:00,39.5,32.0,30.43,North,355,0.0,1.0,73,0.00,,,0.00,weatherlink.com 1.10,2013-04-27 10:29:00,
2013-04-27 06:44:00,39.4,31.0,30.43,North,5,1.0,3.0,72,0.00,,,0.00,weatherlink.com 1.10,2013-04-27 10:44:00,
2013-04-27 06:59:00,41.4,31.0,30.43,North,355,0.0,2.0,67,0.00,,,0.00,weatherlink.com 1.10,2013-04-27 10:59:00,
2013-04-27 07:14:00,43.0,31.0,30.43,NNW,329,1.0,4.0,64,0.00,,,0.00,weatherlink.com 1.10,2013-04-27 11:14:00,
2013-04-27 07:29:00,44.5,32.0,30.43,NNW,343,2.0,5.0,61,0.00,,,0.00,weatherlink.com 1.10,2013-04-27 11:29:00,
2013-04-27 07:44:00,45.9,32.0,30.43,North,360,2.0,5.0,59,0.00,,,0.00,weatherlink.com 1.10,2013-04-27 11:44:00,
2013-04-27 07:59:00,47.5,32.0,30.43,NW,317,4.0,6.0,55,0.00,,,0.00,weatherlink.com 1.10,2013-04-27 11:59:00,
2013-04-27 08:14:00,48.6,32.0,30.43,NE,35,3.0,6.0,54,0.00,,,0.00,weatherlink.com 1.10,2013-04-27 12:14:00,
2013-04-27 08:29:00,49.4,33.0,30.43,NNE,12,1.0,5.0,53,0.00,,,0.00,weatherlink.com 1.10,2013-04-27 12:29:00,
2013-04-27 08:44:00,50.1,33.0,30.43,North,355,2.0,4.0,53,0.00,,,0.00,weatherlink.com 1.10,2013-04-27 12:44:00,
2013-04-27 08:59:00,51.0,33.0,30.43,NNW,333,3.0,7.0,51,0.00,,,0.00,weatherlink.com 1.10,2013-04-27 12:59:00,
2013-04-27 09:14:00,52.1,34.0,30.43,NNW,338,0.0,10.0,50,0.00,,,0.00,weatherlink.com 1.10,2013-04-27 13:14:00,
2013-04-27 09:29:00,52.8,36.0,30.43,NW,319,4.0,6.0,53,0.00,,,0.00,weatherlink.com 1.10,2013-04-27 13:29:00,
2013-04-27 09:44:00,53.5,37.0,30.43,NW,306,4.0,6.0,53,0.00,,,0.00,weatherlink.com 1.10,2013-04-27 13:44:00,
2013-04-27 09:59:00,54.5,36.0,30.43,North,355,1.0,6.0,51,0.00,,,0.00,weatherlink.com 1.10,2013-04-27 13:59:00,
2013-04-27 10:14:00,54.5,34.0,30.43,NNW,329,4.0,9.0,46,0.00,,,0.00,weatherlink.com 1.10,2013-04-27 14:14:00,
2013-04-27 10:29:00,55.5,35.0,30.42,NNW,340,5.0,8.0,46,0.00,,,0.00,weatherlink.com 1.10,2013-04-27 14:29:00,
2013-04-27 10:44:00,56.4,33.0,30.42,West,268,3.0,10.0,41,0.00,,,0.00,weatherlink.com 1.10,2013-04-27 14:44:00,
2013-04-27 10:59:00,57.9,35.0,30.42,North,349,0.0,6.0,42,0.00,,,0.00,weatherlink.com 1.10,2013-04-27 14:59:00,
2013-04-27 11:14:00,58.6,33.0,30.43,NNE,24,4.0,9.0,38,0.00,,,0.00,weatherlink.com 1.10,2013-04-27 15:14:00,
2013-04-27 11:29:00,59.6,31.0,30.42,NW,307,3.0,6.0,34,0.00,,,0.00,weatherlink.com 1.10,2013-04-27 15:29:00,
2013-04-27 11:45:00,60.3,34.0,30.41,NNW,342,4.0,8.0,37,0.00,,,0.00,weatherlink.com 1.10,2013-04-27 15:45:00,
2013-04-27 12:00:00,61.2,34.0,30.40,NNW,342,1.0,10.0,36,0.00,,,0.00,weatherlink.com 1.10,2013-04-27 16:00:00,
2013-04-27 12:15:00,61.2,32.0,30.40,NNW,336,2.0,10.0,33,0.00,,,0.00,weatherlink.com 1.10,2013-04-27 16:15:00,
2013-04-27 12:30:00,62.2,35.0,30.39,North,5,4.0,10.0,37,0.00,,,0.00,weatherlink.com 1.10,2013-04-27 16:30:00,
2013-04-27 12:45:00,62.6,31.0,30.39,North,360,2.0,10.0,31,0.00,,,0.00,weatherlink.com 1.10,2013-04-27 16:45:00,
2013-04-27 13:00:00,63.3,31.0,30.38,NW,311,6.0,11.0,30,0.00,,,0.00,weatherlink.com 1.10,2013-04-27 17:00:00,
2013-04-27 13:15:00,63.3,33.0,30.37,NNW,327,3.0,10.0,32,0.00,,,0.00,weatherlink.com 1.10,2013-04-27 17:15:00,
2013-04-27 13:30:00,63.9,29.0,30.37,North,349,3.0,8.0,27,0.00,,,0.00,weatherlink.com 1.10,2013-04-27 17:30:00,
2013-04-27 13:45:00,64.0,30.0,30.36,SSW,205,2.0,12.0,28,0.00,,,0.00,weatherlink.com 1.10,2013-04-27 17:45:00,
2013-04-27 14:00:00,64.7,36.0,30.36,NW,315,0.0,10.0,35,0.00,,,0.00,weatherlink.com 1.10,2013-04-27 18:00:00,
2013-04-27 14:15:00,65.0,30.0,30.35,North,5,5.0,9.0,27,0.00,,,0.00,weatherlink.com 1.10,2013-04-27 18:15:00,
2013-04-27 14:30:00,65.2,28.0,30.35,NNE,15,4.0,8.0,25,0.00,,,0.00,weatherlink.com 1.10,2013-04-27 18:30:00,
2013-04-27 14:45:00,65.0,28.0,30.34,SE,135,0.0,10.0,25,0.00,,,0.00,weatherlink.com 1.10,2013-04-27 18:45:00,
2013-04-27 15:00:00,65.6,31.0,30.34,North,355,5.0,14.0,27,0.00,,,0.00,weatherlink.com 1.10,2013-04-27 19:00:00,
2013-04-27 15:15:00,66.1,30.0,30.32,East,92,4.0,8.0,26,0.00,,,0.00,weatherlink.com 1.10,2013-04-27 19:15:00,
2013-04-27 15:30:00,66.4,29.0,30.32,WNW,287,2.0,7.0,25,0.00,,,0.00,weatherlink.com 1.10,2013-04-27 19:30:00,
2013-04-27 15:45:00,67.0,29.0,30.31,West,263,2.0,8.0,24,0.00,,,0.00,weatherlink.com 1.10,2013-04-27 19:45:00,
2013-04-27 16:00:00,67.2,32.0,30.31,NNW,329,2.0,14.0,27,0.00,,,0.00,weatherlink.com 1.10,2013-04-27 20:00:00,
2013-04-27 16:15:00,68.1,32.0,30.31,WNW,293,5.0,11.0,26,0.00,,,0.00,weatherlink.com 1.10,2013-04-27 20:15:00,
2013-04-27 16:30:00,68.0,29.0,30.30,North,351,2.0,8.0,23,0.00,,,0.00,weatherlink.com 1.10,2013-04-27 20:30:00,
2013-04-27 16:45:00,67.7,28.0,30.30,WNW,297,5.0,6.0,23,0.00,,,0.00,weatherlink.com 1.10,2013-04-27 20:45:00,
2013-04-27 17:00:00,67.8,32.0,30.30,NNW,330,4.0,8.0,26,0.00,,,0.00,weatherlink.com 1.10,2013-04-27 21:00:00,
2013-04-27 17:15:00,67.6,35.0,30.29,WNW,297,4.0,6.0,30,0.00,,,0.00,weatherlink.com 1.10,2013-04-27 21:15:00,
2013-04-27 17:30:00,67.7,33.0,30.29,NNE,15,3.0,6.0,28,0.00,,,0.00,weatherlink.com 1.10,2013-04-27 21:30:00,
2013-04-27 17:45:00,67.4,32.0,30.29,SW,229,3.0,8.0,27,0.00,,,0.00,weatherlink.com 1.10,2013-04-27 21:45:00,
2013-04-27 18:00:00,68.1,33.0,30.29,NW,304,3.0,6.0,27,0.00,,,0.00,weatherlink.com 1.10,2013-04-27 22:00:00,
2013-04-27 18:15:00,67.2,35.0,30.29,WNW,294,3.0,10.0,30,0.00,,,0.00,weatherlink.com 1.10,2013-04-27 22:15:00,
2013-04-27 18:30:00,66.2,34.0,30.28,North,5,3.0,8.0,30,0.00,,,0.00,weatherlink.com 1.10,2013-04-27 22:30:00,
2013-04-27 18:45:00,65.3,33.0,30.28,NW,306,3.0,3.0,30,0.00,,,0.00,weatherlink.com 1.10,2013-04-27 22:45:00,
2013-04-27 19:00:00,64.3,33.0,30.28,NW,323,2.0,4.0,31,0.00,,,0.00,weatherlink.com 1.10,2013-04-27 23:00:00,
2013-04-27 19:16:00,63.7,35.0,30.28,NW,323,0.0,3.0,35,0.00,,,0.00,weatherlink.com 1.10,2013-04-27 23:16:00,
2013-04-27 19:30:00,63.0,34.0,30.28,NW,326,0.0,3.0,34,0.00,,,0.00,weatherlink.com 1.10,2013-04-27 23:30:00,
2013-04-27 19:46:00,61.4,34.0,30.28,NW,326,0.0,1.0,36,0.00,,,0.00,weatherlink.com 1.10,2013-04-27 23:46:00,
2013-04-27 20:01:00,60.5,32.0,30.29,ESE,119,0.0,6.0,34,0.00,,,0.00,weatherlink.com 1.10,2013-04-28 00:01:00,
2013-04-27 20:16:00,60.0,32.0,30.30,SW,235,2.0,6.0,35,0.00,,,0.00,weatherlink.com 1.10,2013-04-28 00:16:00,
2013-04-27 20:31:00,59.2,33.0,30.30,ESE,109,2.0,6.0,37,0.00,,,0.00,weatherlink.com 1.10,2013-04-28 00:31:00,
2013-04-27 20:46:00,58.4,35.0,30.30,SE,134,1.0,2.0,41,0.00,,,0.00,weatherlink.com 1.10,2013-04-28 00:46:00,
2013-04-27 21:01:00,57.4,34.0,30.31,East,100,0.0,3.0,41,0.00,,,0.00,weatherlink.com 1.10,2013-04-28 01:01:00,
2013-04-27 21:16:00,55.9,35.0,30.32,ENE,75,1.0,2.0,46,0.00,,,0.00,weatherlink.com 1.10,2013-04-28 01:16:00,
2013-04-27 21:31:00,54.5,36.0,30.32,ENE,75,0.0,2.0,50,0.00,,,0.00,weatherlink.com 1.10,2013-04-28 01:31:00,
2013-04-27 21:46:00,53.4,35.0,30.32,ENE,75,2.0,2.0,51,0.00,,,0.00,weatherlink.com 1.10,2013-04-28 01:46:00,
2013-04-27 22:01:00,52.9,36.0,30.33,ENE,75,1.0,3.0,53,0.00,,,0.00,weatherlink.com 1.10,2013-04-28 02:01:00,
2013-04-27 22:16:00,52.3,36.0,30.33,ENE,75,0.0,2.0,54,0.00,,,0.00,weatherlink.com 1.10,2013-04-28 02:16:00,
2013-04-27 22:31:00,51.5,36.0,30.33,ENE,75,0.0,1.0,55,0.00,,,0.00,weatherlink.com 1.10,2013-04-28 02:31:00,
2013-04-27 22:46:00,51.0,36.0,30.33,ENE,75,0.0,1.0,57,0.00,,,0.00,weatherlink.com 1.10,2013-04-28 02:46:00,
2013-04-27 23:01:00,50.4,36.0,30.33,ENE,75,0.0,1.0,59,0.00,,,0.00,weatherlink.com 1.10,2013-04-28 03:01:00,
2013-04-27 23:16:00,49.7,37.0,30.33,ENE,75,0.0,1.0,62,0.00,,,0.00,weatherlink.com 1.10,2013-04-28 03:16:00,
2013-04-27 23:31:00,49.2,37.0,30.33,ENE,75,1.0,2.0,64,0.00,,,0.00,weatherlink.com 1.10,2013-04-28 03:31:00,
2013-04-27 23:46:00,49.1,37.0,30.33,ENE,75,0.0,1.0,64,0.00,,,0.00,weatherlink.com 1.10,2013-04-28 03:46:00,